createdAt,value
2018-06-27T00:00:03.605Z,99.99
2018-06-27T00:01:03.588Z,99.99
2018-06-27T00:02:03.569Z,99.99
2018-06-27T00:03:03.550Z,99.99
2018-06-27T00:04:03.536Z,99.99
2018-06-27T00:05:03.526Z,99.99
2018-06-27T00:06:03.499Z,99.99
2018-06-27T00:07:03.485Z,99.99
2018-06-27T00:08:03.467Z,99.99
2018-06-27T00:09:03.448Z,99.99
2018-06-27T00:10:03.433Z,99.99
2018-06-27T00:11:03.420Z,99.99
2018-06-27T00:12:03.403Z,99.99
2018-06-27T00:13:03.380Z,99.99
2018-06-27T00:14:03.364Z,99.99
2018-06-27T00:15:03.347Z,99.99
2018-06-27T00:16:03.341Z,99.99
2018-06-27T00:17:03.319Z,99.99
2018-06-27T00:18:03.295Z,99.99
2018-06-27T00:19:03.278Z,99.99
2018-06-27T00:20:03.262Z,99.99
2018-06-27T00:21:03.243Z,99.99
2018-06-27T00:22:03.227Z,99.99
2018-06-27T00:23:03.211Z,99.99
2018-06-27T00:24:03.194Z,99.99
2018-06-27T00:25:03.177Z,99.99
2018-06-27T00:26:03.158Z,99.99
2018-06-27T00:27:03.140Z,99.99
2018-06-27T00:28:03.122Z,99.99
2018-06-27T00:29:03.120Z,99.99
2018-06-27T00:30:03.089Z,99.99
2018-06-27T00:31:03.079Z,99.99
2018-06-27T00:32:03.159Z,99.99
2018-06-27T00:33:03.047Z,99.99
2018-06-27T00:34:03.022Z,99.99
2018-06-27T00:35:03.003Z,99.99
2018-06-27T00:36:02.995Z,99.99
2018-06-27T00:37:02.968Z,99.99
2018-06-27T00:38:02.954Z,99.99
2018-06-27T00:39:02.933Z,99.99
2018-06-27T00:40:02.927Z,99.99
2018-06-27T00:41:02.906Z,99.99
2018-06-27T00:42:02.883Z,99.99
2018-06-27T00:43:02.866Z,99.99
2018-06-27T00:44:02.848Z,99.99
2018-06-27T00:45:02.851Z,99.99
2018-06-27T00:46:02.814Z,99.99
2018-06-27T00:47:02.795Z,99.99
2018-06-27T00:48:02.778Z,99.99
2018-06-27T00:49:02.759Z,99.99
2018-06-27T00:50:02.751Z,99.99
2018-06-27T00:51:02.729Z,99.99
2018-06-27T00:52:02.708Z,99.99
2018-06-27T00:53:02.690Z,99.99
2018-06-27T00:54:02.680Z,99.99
2018-06-27T00:55:02.660Z,99.99
2018-06-27T00:56:02.639Z,99.99
2018-06-27T00:57:02.621Z,99.99
2018-06-27T00:58:02.619Z,99.99
2018-06-27T00:59:02.587Z,99.99
2018-06-27T01:00:02.570Z,99.99
2018-06-27T01:01:02.560Z,99.99
2018-06-27T01:02:02.582Z,99.99
2018-06-27T01:03:02.519Z,99.99
2018-06-27T01:04:02.499Z,99.99
2018-06-27T01:05:02.481Z,99.99
2018-06-27T01:06:02.467Z,99.99
2018-06-27T01:07:02.447Z,99.99
2018-06-27T01:08:02.434Z,99.99
2018-06-27T01:09:02.421Z,99.99
2018-06-27T01:10:02.397Z,99.99
2018-06-27T01:11:02.381Z,99.99
2018-06-27T01:12:02.363Z,99.99
2018-06-27T01:13:02.369Z,99.99
2018-06-27T01:14:02.327Z,99.99
2018-06-27T01:15:02.310Z,99.99
2018-06-27T01:16:02.291Z,99.99
2018-06-27T01:17:02.281Z,99.99
2018-06-27T01:18:02.257Z,99.99
2018-06-27T01:19:02.241Z,99.99
2018-06-27T01:20:02.230Z,99.99
2018-06-27T01:21:02.204Z,99.99
2018-06-27T01:22:02.194Z,99.99
2018-06-27T01:23:02.176Z,99.99
2018-06-27T01:24:02.151Z,99.99
2018-06-27T01:25:02.142Z,99.99
2018-06-27T01:26:02.123Z,99.99
2018-06-27T01:27:02.109Z,99.99
2018-06-27T01:28:02.083Z,99.99
2018-06-27T01:29:02.063Z,99.99
2018-06-27T01:30:02.047Z,99.99
2018-06-27T01:31:02.028Z,99.99
2018-06-27T01:32:02.011Z,99.99
2018-06-27T01:33:01.996Z,99.99
2018-06-27T01:34:01.976Z,99.99
2018-06-27T01:35:01.960Z,99.99
2018-06-27T01:36:01.942Z,99.99
2018-06-27T01:37:01.924Z,99.99
2018-06-27T01:38:01.906Z,99.99
2018-06-27T01:39:01.889Z,99.99
2018-06-27T01:40:01.872Z,99.99
2018-06-27T01:41:01.859Z,99.99
2018-06-27T01:42:01.839Z,99.99
2018-06-27T01:43:01.820Z,99.99
2018-06-27T01:44:01.800Z,99.99
2018-06-27T01:45:01.785Z,99.99
2018-06-27T01:46:01.765Z,99.99
2018-06-27T01:47:01.748Z,99.99
2018-06-27T01:48:01.732Z,99.99
2018-06-27T01:49:01.733Z,99.99
2018-06-27T01:50:01.697Z,99.99
2018-06-27T01:51:01.677Z,99.99
2018-06-27T01:52:01.661Z,99.99
2018-06-27T01:53:01.644Z,99.99
2018-06-27T01:54:01.626Z,99.99
2018-06-27T01:55:01.608Z,99.99
2018-06-27T01:56:01.591Z,99.99
2018-06-27T01:57:01.571Z,99.99
2018-06-27T01:58:01.554Z,99.99
2018-06-27T01:59:01.535Z,99.99
2018-06-27T02:00:01.520Z,99.99
2018-06-27T02:01:01.503Z,99.99
2018-06-27T02:02:01.491Z,99.99
2018-06-27T02:03:01.465Z,99.99
2018-06-27T02:04:01.449Z,99.99
2018-06-27T02:05:01.432Z,99.99
2018-06-27T02:06:01.412Z,99.99
2018-06-27T02:07:01.395Z,99.99
2018-06-27T02:08:01.378Z,99.99
2018-06-27T02:09:01.362Z,99.99
2018-06-27T02:10:01.351Z,99.99
2018-06-27T02:11:01.326Z,99.99
2018-06-27T02:12:01.308Z,99.99
2018-06-27T02:13:01.288Z,99.99
2018-06-27T02:14:01.271Z,99.99
2018-06-27T02:15:01.255Z,99.99
2018-06-27T02:16:01.238Z,99.99
2018-06-27T02:17:01.218Z,99.99
2018-06-27T02:18:01.200Z,99.99
2018-06-27T02:19:01.184Z,99.99
2018-06-27T02:20:01.166Z,99.99
2018-06-27T02:21:01.150Z,99.99
2018-06-27T02:22:01.130Z,99.99
2018-06-27T02:23:01.122Z,99.99
2018-06-27T02:24:01.095Z,99.99
2018-06-27T02:25:01.077Z,99.99
2018-06-27T02:26:01.060Z,99.99
2018-06-27T02:27:01.041Z,99.99
2018-06-27T02:28:01.025Z,99.99
2018-06-27T02:29:01.006Z,99.99
2018-06-27T02:30:00.988Z,99.99
2018-06-27T02:31:00.971Z,99.99
2018-06-27T02:32:00.958Z,99.99
2018-06-27T02:33:00.936Z,99.99
2018-06-27T02:34:00.916Z,99.99
2018-06-27T02:35:00.903Z,99.99
2018-06-27T02:36:00.883Z,99.99
2018-06-27T02:37:00.863Z,99.99
2018-06-27T02:38:00.847Z,99.99
2018-06-27T02:39:00.830Z,99.99
2018-06-27T02:40:00.821Z,99.99
2018-06-27T02:41:00.794Z,99.99
2018-06-27T02:42:00.775Z,99.99
2018-06-27T02:43:00.760Z,99.99
2018-06-27T02:44:00.740Z,99.99
2018-06-27T02:45:00.720Z,99.99
2018-06-27T02:46:00.704Z,99.99
2018-06-27T02:47:00.692Z,99.99
2018-06-27T02:48:00.670Z,99.99
2018-06-27T02:49:00.651Z,99.99
2018-06-27T02:50:00.636Z,99.99
2018-06-27T02:51:00.623Z,99.99
2018-06-27T02:52:00.595Z,99.99
2018-06-27T02:53:00.579Z,99.99
2018-06-27T02:54:00.561Z,99.99
2018-06-27T02:55:00.544Z,99.99
2018-06-27T02:56:00.526Z,99.99
2018-06-27T02:57:00.505Z,99.99
2018-06-27T02:58:00.503Z,99.99
2018-06-27T02:59:00.480Z,99.99
2018-06-27T03:00:00.454Z,99.99
2018-06-27T03:01:00.441Z,99.99
2018-06-27T03:02:00.421Z,99.99
2018-06-27T03:03:00.404Z,99.99
2018-06-27T03:04:00.381Z,99.99
2018-06-27T03:05:00.367Z,99.99
2018-06-27T03:06:00.346Z,99.99
2018-06-27T03:07:00.328Z,99.99
2018-06-27T03:08:00.318Z,99.99
2018-06-27T03:09:00.393Z,99.99
2018-06-27T03:10:00.276Z,99.99
2018-06-27T03:11:00.258Z,99.99
2018-06-27T03:12:00.289Z,99.99
2018-06-27T03:13:00.220Z,99.99
2018-06-27T03:14:00.203Z,99.99
2018-06-27T03:15:00.185Z,99.99
2018-06-27T03:16:00.185Z,99.99
2018-06-27T03:17:00.155Z,99.99
2018-06-27T03:18:00.137Z,99.99
2018-06-27T03:19:00.114Z,99.99
2018-06-27T03:20:00.097Z,99.99
2018-06-27T03:21:00.078Z,99.99
2018-06-27T03:22:00.096Z,99.99
2018-06-27T03:23:00.043Z,99.99
2018-06-27T03:24:00.025Z,99.99
2018-06-27T03:25:00.011Z,99.99
2018-06-27T03:25:59.988Z,99.99
2018-06-27T03:26:59.971Z,99.99
2018-06-27T03:27:59.956Z,99.99
2018-06-27T03:28:59.936Z,99.99
2018-06-27T03:29:59.917Z,99.99
2018-06-27T03:30:59.899Z,99.99
2018-06-27T03:31:59.881Z,99.99
2018-06-27T03:32:59.869Z,99.99
2018-06-27T03:33:59.844Z,99.99
2018-06-27T03:34:59.835Z,99.99
2018-06-27T03:35:59.826Z,99.99
2018-06-27T03:36:59.790Z,99.99
2018-06-27T03:37:59.780Z,99.99
2018-06-27T03:38:59.773Z,99.99
2018-06-27T03:39:59.737Z,99.99
2018-06-27T03:40:59.720Z,99.99
2018-06-27T03:42:00.432Z,99.99
2018-06-27T03:42:59.703Z,99.99
2018-06-27T03:43:59.992Z,99.99
2018-06-27T03:44:59.664Z,99.99
2018-06-27T03:45:59.628Z,99.99
2018-06-27T03:46:59.649Z,99.99
2018-06-27T03:47:59.622Z,99.99
2018-06-27T03:48:59.574Z,99.99
2018-06-27T03:49:59.557Z,99.99
2018-06-27T03:50:59.539Z,99.99
2018-06-27T03:51:59.522Z,99.99
2018-06-27T03:52:59.503Z,99.99
2018-06-27T03:53:59.487Z,99.99
2018-06-27T03:54:59.470Z,99.99
2018-06-27T03:55:59.452Z,99.99
2018-06-27T03:56:59.431Z,99.99
2018-06-27T03:57:59.414Z,99.99
2018-06-27T03:58:59.409Z,99.99
2018-06-27T03:59:59.382Z,99.99
2018-06-27T04:00:59.563Z,99.99
2018-06-27T04:01:59.346Z,99.99
2018-06-27T04:02:59.326Z,99.99
2018-06-27T04:03:59.308Z,99.99
2018-06-27T04:04:59.295Z,99.99
2018-06-27T04:05:59.281Z,99.99
2018-06-27T04:06:59.261Z,99.99
2018-06-27T04:07:59.244Z,99.99
2018-06-27T04:08:59.219Z,99.99
2018-06-27T04:09:59.217Z,99.99
2018-06-27T04:10:59.185Z,99.99
2018-06-27T04:11:59.167Z,99.99
2018-06-27T04:12:59.267Z,99.99
2018-06-27T04:13:59.130Z,99.99
2018-06-27T04:14:59.119Z,99.99
2018-06-27T04:15:59.105Z,99.99
2018-06-27T04:16:59.077Z,99.99
2018-06-27T04:17:59.071Z,99.99
2018-06-27T04:18:59.048Z,99.99
2018-06-27T04:19:59.025Z,99.99
2018-06-27T04:20:59.007Z,99.99
2018-06-27T04:21:58.995Z,99.99
2018-06-27T04:22:58.972Z,99.99
2018-06-27T04:23:58.955Z,99.99
2018-06-27T04:24:58.936Z,99.99
2018-06-27T04:25:58.919Z,99.99
2018-06-27T04:26:58.902Z,99.99
2018-06-27T04:27:59.203Z,99.99
2018-06-27T04:28:58.878Z,99.99
2018-06-27T04:29:58.856Z,99.99
2018-06-27T04:30:58.851Z,99.99
2018-06-27T04:31:58.816Z,99.99
2018-06-27T04:32:58.796Z,99.99
2018-06-27T04:33:58.781Z,99.99
2018-06-27T04:34:58.763Z,99.99
2018-06-27T04:35:58.749Z,99.99
2018-06-27T04:36:58.729Z,99.99
2018-06-27T04:37:58.709Z,99.99
2018-06-27T04:38:58.693Z,99.99
2018-06-27T04:39:58.677Z,99.99
2018-06-27T04:40:58.658Z,99.99
2018-06-27T04:41:58.650Z,99.99
2018-06-27T04:42:58.626Z,99.99
2018-06-27T04:43:58.607Z,99.99
2018-06-27T04:44:58.591Z,99.99
2018-06-27T04:45:58.574Z,99.99
2018-06-27T04:46:58.558Z,99.99
2018-06-27T04:47:58.564Z,99.99
2018-06-27T04:48:58.521Z,99.99
2018-06-27T04:49:58.831Z,99.99
2018-06-27T04:50:58.490Z,99.99
2018-06-27T04:51:58.472Z,99.99
2018-06-27T04:52:58.454Z,99.99
2018-06-27T04:53:58.440Z,99.99
2018-06-27T04:54:58.440Z,99.99
2018-06-27T04:55:58.404Z,99.99
2018-06-27T04:56:58.389Z,99.99
2018-06-27T04:57:58.369Z,99.99
2018-06-27T04:58:58.350Z,99.99
2018-06-27T04:59:58.343Z,99.99
2018-06-27T05:00:58.317Z,99.99
2018-06-27T05:01:58.300Z,99.99
2018-06-27T05:02:58.283Z,99.99
2018-06-27T05:03:58.275Z,99.99
2018-06-27T05:04:58.249Z,99.99
2018-06-27T05:05:58.232Z,99.99
2018-06-27T05:06:58.216Z,99.99
2018-06-27T05:07:58.204Z,99.99
2018-06-27T05:08:58.192Z,99.99
2018-06-27T05:09:58.175Z,99.99
2018-06-27T05:10:58.148Z,99.99
2018-06-27T05:11:58.133Z,99.99
2018-06-27T05:12:58.115Z,99.99
2018-06-27T05:13:58.098Z,99.99
2018-06-27T05:14:58.090Z,99.99
2018-06-27T05:15:58.108Z,99.99
2018-06-27T05:16:58.052Z,99.99
2018-06-27T05:17:58.033Z,99.99
2018-06-27T05:18:58.024Z,99.99
2018-06-27T05:19:58.001Z,99.99
2018-06-27T05:20:57.980Z,99.99
2018-06-27T05:21:57.966Z,99.99
2018-06-27T05:22:57.949Z,99.99
2018-06-27T05:23:57.931Z,99.99
2018-06-27T05:24:57.914Z,99.99
2018-06-27T05:25:57.899Z,99.99
2018-06-27T05:26:57.890Z,99.99
2018-06-27T05:27:57.869Z,99.99
2018-06-27T05:28:57.852Z,99.99
2018-06-27T05:29:57.833Z,99.99
2018-06-27T05:30:57.825Z,99.99
2018-06-27T05:31:57.801Z,99.99
2018-06-27T05:32:57.784Z,99.99
2018-06-27T05:33:57.840Z,99.99
2018-06-27T05:34:57.754Z,99.99
2018-06-27T05:35:57.736Z,99.99
2018-06-27T05:36:57.719Z,99.99
2018-06-27T05:37:57.704Z,99.99
2018-06-27T05:38:57.685Z,99.99
2018-06-27T05:39:57.671Z,99.99
2018-06-27T05:40:57.663Z,99.99
2018-06-27T05:41:57.644Z,99.99
2018-06-27T05:42:57.622Z,99.99
2018-06-27T05:43:57.614Z,96.47
2018-06-27T05:44:57.595Z,91.76
2018-06-27T05:45:57.576Z,88.35
2018-06-27T05:46:57.605Z,86.61
2018-06-27T05:47:57.552Z,84.11
2018-06-27T05:48:57.539Z,83.58
2018-06-27T05:49:57.521Z,81.70
2018-06-27T05:50:57.504Z,80.29
2018-06-27T05:51:57.491Z,78.11
2018-06-27T05:52:57.470Z,76.28
2018-06-27T05:53:57.456Z,76.57
2018-06-27T05:54:57.450Z,76.82
2018-06-27T05:55:57.429Z,76.76
2018-06-27T05:56:57.415Z,75.07
2018-06-27T05:57:57.401Z,74.24
2018-06-27T05:58:57.388Z,72.63
2018-06-27T05:59:57.381Z,71.58
2018-06-27T06:00:57.364Z,70.36
2018-06-27T06:01:57.352Z,69.23
2018-06-27T06:02:57.342Z,68.17
2018-06-27T06:03:57.329Z,68.26
2018-06-27T06:04:57.319Z,68.04
2018-06-27T06:05:57.314Z,69.00
2018-06-27T06:06:57.296Z,68.75
2018-06-27T06:07:57.304Z,68.01
2018-06-27T06:08:57.277Z,67.43
2018-06-27T06:09:57.275Z,66.85
2018-06-27T06:10:57.291Z,66.40
2018-06-27T06:11:57.250Z,65.92
2018-06-27T06:12:57.240Z,65.14
2018-06-27T06:13:57.235Z,64.92
2018-06-27T06:14:57.221Z,67.14
2018-06-27T06:15:57.213Z,66.20
2018-06-27T06:16:57.210Z,66.27
2018-06-27T06:17:57.195Z,67.24
2018-06-27T06:18:57.189Z,67.11
2018-06-27T06:19:57.180Z,67.04
2018-06-27T06:20:57.177Z,65.63
2018-06-27T06:21:57.165Z,64.98
2018-06-27T06:22:57.166Z,63.85
2018-06-27T06:23:57.159Z,64.01
2018-06-27T06:24:57.141Z,65.05
2018-06-27T06:25:57.147Z,65.05
2018-06-27T06:26:57.129Z,65.63
2018-06-27T06:27:57.121Z,65.11
2018-06-27T06:28:57.115Z,65.92
2018-06-27T06:29:57.108Z,65.69
2018-06-27T06:30:57.111Z,66.08
2018-06-27T06:31:57.096Z,65.59
2018-06-27T06:32:57.088Z,65.98
2018-06-27T06:33:57.098Z,64.85
2018-06-27T06:34:57.080Z,64.43
2018-06-27T06:35:57.072Z,64.37
2018-06-27T06:36:57.080Z,66.27
2018-06-27T06:37:57.057Z,65.82
2018-06-27T06:38:57.061Z,64.34
2018-06-27T06:39:57.048Z,63.66
2018-06-27T06:40:57.053Z,62.79
2018-06-27T06:41:57.043Z,63.37
2018-06-27T06:42:57.030Z,63.46
2018-06-27T06:43:57.031Z,63.18
2018-06-27T06:44:57.021Z,61.95
2018-06-27T06:45:57.022Z,61.66
2018-06-27T06:46:57.009Z,62.04
2018-06-27T06:47:57.012Z,61.40
2018-06-27T06:48:57.010Z,60.36
2018-06-27T06:49:56.995Z,59.23
2018-06-27T06:50:56.991Z,59.26
2018-06-27T06:51:57.005Z,58.94
2018-06-27T06:52:56.981Z,60.30
2018-06-27T06:53:56.977Z,62.98
2018-06-27T06:54:56.973Z,62.72
2018-06-27T06:55:56.978Z,61.21
2018-06-27T06:56:56.966Z,59.94
2018-06-27T06:57:56.962Z,60.82
2018-06-27T06:58:56.965Z,63.11
2018-06-27T06:59:56.954Z,62.79
2018-06-27T07:00:56.957Z,63.37
2018-06-27T07:01:56.951Z,63.95
2018-06-27T07:02:56.943Z,64.72
2018-06-27T07:03:56.939Z,64.14
2018-06-27T07:04:56.960Z,63.66
2018-06-27T07:05:57.084Z,62.95
2018-06-27T07:06:56.931Z,61.69
2018-06-27T07:07:56.929Z,61.21
2018-06-27T07:08:56.925Z,62.07
2018-06-27T07:09:56.926Z,61.79
2018-06-27T07:10:56.930Z,61.24
2018-06-27T07:11:56.917Z,60.27
2018-06-27T07:12:56.914Z,60.49
2018-06-27T07:13:56.913Z,59.71
2018-06-27T07:14:56.912Z,60.17
2018-06-27T07:15:56.911Z,61.14
2018-06-27T07:16:56.903Z,59.91
2018-06-27T07:17:56.901Z,61.49
2018-06-27T07:18:56.900Z,62.27
2018-06-27T07:19:56.906Z,61.49
2018-06-27T07:20:56.894Z,63.31
2018-06-27T07:21:56.892Z,64.21
2018-06-27T07:22:56.896Z,65.08
2018-06-27T07:23:56.891Z,67.04
2018-06-27T07:24:56.892Z,68.94
2018-06-27T07:25:56.885Z,69.71
2018-06-27T07:26:56.892Z,68.62
2018-06-27T07:27:56.883Z,68.24
2018-06-27T07:28:56.884Z,67.79
2018-06-27T07:29:56.889Z,65.88
2018-06-27T07:30:56.878Z,64.82
2018-06-27T07:31:56.874Z,64.82
2018-06-27T07:32:56.872Z,65.11
2018-06-27T07:33:56.871Z,64.72
2018-06-27T07:34:56.870Z,65.11
2018-06-27T07:35:56.930Z,65.85
2018-06-27T07:36:56.874Z,66.53
2018-06-27T07:37:56.868Z,67.01
2018-06-27T07:38:56.874Z,67.11
2018-06-27T07:39:56.867Z,67.49
2018-06-27T07:40:56.864Z,68.68
2018-06-27T07:41:56.862Z,68.68
2018-06-27T07:42:56.865Z,69.07
2018-06-27T07:43:56.862Z,69.74
2018-06-27T07:44:56.860Z,69.46
2018-06-27T07:45:56.862Z,69.74
2018-06-27T07:46:56.860Z,69.26
2018-06-27T07:47:56.862Z,70.00
2018-06-27T07:48:56.852Z,70.62
2018-06-27T07:49:56.894Z,70.32
2018-06-27T07:50:56.846Z,69.94
2018-06-27T07:51:56.845Z,69.90
2018-06-27T07:52:56.844Z,70.62
2018-06-27T07:53:56.838Z,69.74
2018-06-27T07:54:56.833Z,69.26
2018-06-27T07:55:56.834Z,69.74
2018-06-27T07:56:56.831Z,69.59
2018-06-27T07:57:56.818Z,68.82
2018-06-27T07:58:56.819Z,69.40
2018-06-27T07:59:56.809Z,69.40
2018-06-27T08:00:56.805Z,69.40
2018-06-27T08:01:56.806Z,68.82
2018-06-27T08:02:56.792Z,69.01
2018-06-27T08:03:56.788Z,69.94
2018-06-27T08:04:56.790Z,70.90
2018-06-27T08:05:56.890Z,69.20
2018-06-27T08:06:56.768Z,68.91
2018-06-27T08:07:56.776Z,69.24
2018-06-27T08:08:56.757Z,68.72
2018-06-27T08:09:56.752Z,69.78
2018-06-27T08:10:56.748Z,70.62
2018-06-27T08:11:56.752Z,71.68
2018-06-27T08:12:56.745Z,71.20
2018-06-27T08:13:56.734Z,70.72
2018-06-27T08:14:56.724Z,71.30
2018-06-27T08:15:56.723Z,71.74
2018-06-27T08:16:56.718Z,71.64
2018-06-27T08:17:56.889Z,72.13
2018-06-27T08:18:56.709Z,72.22
2018-06-27T08:19:56.691Z,72.61
2018-06-27T08:20:56.685Z,74.21
2018-06-27T08:21:56.678Z,74.51
2018-06-27T08:22:56.672Z,76.01
2018-06-27T08:23:56.665Z,75.34
2018-06-27T08:24:56.661Z,76.10
2018-06-27T08:25:56.765Z,76.40
2018-06-27T08:26:56.755Z,76.30
2018-06-27T08:27:56.636Z,75.92
2018-06-27T08:28:56.629Z,75.82
2018-06-27T08:29:56.629Z,75.27
2018-06-27T08:30:56.616Z,75.47
2018-06-27T08:31:56.609Z,74.69
2018-06-27T08:32:56.601Z,74.06
2018-06-27T08:33:56.590Z,74.79
2018-06-27T08:34:56.582Z,75.27
2018-06-27T08:35:56.589Z,75.67
2018-06-27T08:36:56.578Z,75.95
2018-06-27T08:37:59.181Z,76.24
2018-06-27T08:38:56.757Z,75.41
2018-06-27T08:39:56.548Z,74.83
2018-06-27T08:40:56.530Z,73.58
2018-06-27T08:41:57.737Z,73.61
2018-06-27T08:42:59.945Z,72.74
2018-06-27T08:43:59.530Z,72.55
2018-06-27T08:45:00.131Z,72.20
2018-06-27T08:45:56.501Z,71.81
2018-06-27T08:46:56.480Z,71.26
2018-06-27T08:47:56.478Z,69.66
2018-06-27T08:48:56.456Z,69.08
2018-06-27T08:49:56.513Z,69.08
2018-06-27T08:50:56.438Z,68.98
2018-06-27T08:51:56.428Z,68.79
2018-06-27T08:52:56.418Z,68.79
2018-06-27T08:53:56.412Z,69.17
2018-06-27T08:54:56.407Z,70.68
2018-06-27T08:55:56.391Z,71.08
2018-06-27T08:56:56.385Z,71.56
2018-06-27T08:57:56.374Z,70.62
2018-06-27T08:58:56.372Z,70.43
2018-06-27T08:59:56.354Z,69.37
2018-06-27T09:00:56.346Z,69.31
2018-06-27T09:01:56.346Z,69.11
2018-06-27T09:02:56.335Z,68.91
2018-06-27T09:03:56.319Z,67.50
2018-06-27T09:04:56.309Z,66.43
2018-06-27T09:05:56.305Z,66.11
2018-06-27T09:06:56.292Z,64.95
2018-06-27T09:07:56.282Z,64.59
2018-06-27T09:08:56.272Z,63.33
2018-06-27T09:09:58.886Z,63.82
2018-06-27T09:10:56.278Z,64.40
2018-06-27T09:11:56.249Z,64.30
2018-06-27T09:12:56.244Z,64.65
2018-06-27T09:13:56.234Z,66.05
2018-06-27T09:14:56.234Z,67.40
2018-06-27T09:15:56.219Z,68.43
2018-06-27T09:16:56.229Z,68.91
2018-06-27T09:17:56.207Z,68.91
2018-06-27T09:18:56.213Z,68.24
2018-06-27T09:19:56.197Z,67.50
2018-06-27T09:20:56.193Z,67.30
2018-06-27T09:21:56.186Z,66.85
2018-06-27T09:22:56.186Z,65.34
2018-06-27T09:23:56.186Z,65.17
2018-06-27T09:24:56.183Z,63.95
2018-06-27T09:25:56.173Z,62.98
2018-06-27T09:26:56.180Z,63.17
2018-06-27T09:27:56.172Z,62.32
2018-06-27T09:28:56.173Z,62.29
2018-06-27T09:29:56.163Z,62.78
2018-06-27T09:30:56.160Z,63.36
2018-06-27T09:31:56.155Z,63.26
2018-06-27T09:32:56.255Z,62.29
2018-06-27T09:33:56.160Z,61.65
2018-06-27T09:34:56.151Z,61.97
2018-06-27T09:35:56.193Z,61.09
2018-06-27T09:36:56.148Z,61.65
2018-06-27T09:37:56.140Z,62.78
2018-06-27T09:38:56.135Z,62.88
2018-06-27T09:39:56.144Z,62.71
2018-06-27T09:40:56.134Z,62.88
2018-06-27T09:41:56.203Z,63.26
2018-06-27T09:42:56.132Z,62.13
2018-06-27T09:43:56.134Z,62.32
2018-06-27T09:44:56.135Z,61.87
2018-06-27T09:45:56.224Z,61.94
2018-06-27T09:46:56.125Z,62.13
2018-06-27T09:47:56.129Z,62.10
2018-06-27T09:48:56.127Z,62.01
2018-06-27T09:49:56.129Z,61.74
2018-06-27T09:50:56.119Z,61.52
2018-06-27T09:51:56.118Z,61.35
2018-06-27T09:52:56.115Z,60.80
2018-06-27T09:53:56.122Z,60.31
2018-06-27T09:54:56.112Z,60.77
2018-06-27T09:55:56.121Z,61.42
2018-06-27T09:56:56.129Z,61.94
2018-06-27T09:57:56.109Z,61.38
2018-06-27T09:58:56.114Z,60.77
2018-06-27T09:59:56.111Z,60.71
2018-06-27T10:00:56.100Z,60.80
2018-06-27T10:01:56.109Z,61.12
2018-06-27T10:02:56.109Z,59.31
2018-06-27T10:03:56.105Z,58.72
2018-06-27T10:04:56.093Z,57.10
2018-06-27T10:05:56.094Z,56.45
2018-06-27T10:06:56.090Z,55.76
2018-06-27T10:07:56.097Z,54.79
2018-06-27T10:08:56.086Z,55.21
2018-06-27T10:09:56.092Z,53.06
2018-06-27T10:10:56.085Z,54.03
2018-06-27T10:11:56.080Z,54.13
2018-06-27T10:12:56.079Z,53.70
2018-06-27T10:13:56.078Z,52.53
2018-06-27T10:14:56.083Z,51.48
2018-06-27T10:15:56.078Z,50.51
2018-06-27T10:16:56.109Z,52.22
2018-06-27T10:17:56.073Z,52.24
2018-06-27T10:18:56.071Z,51.56
2018-06-27T10:19:56.071Z,50.70
2018-06-27T10:20:56.070Z,50.53
2018-06-27T10:21:56.082Z,49.56
2018-06-27T10:22:56.074Z,50.14
2018-06-27T10:23:56.077Z,49.66
2018-06-27T10:24:56.079Z,50.90
2018-06-27T10:25:56.079Z,50.34
2018-06-27T10:26:56.085Z,50.36
2018-06-27T10:27:56.085Z,48.83
2018-06-27T10:28:56.086Z,47.85
2018-06-27T10:29:56.090Z,48.14
2018-06-27T10:30:56.094Z,48.14
2018-06-27T10:31:56.099Z,50.75
2018-06-27T10:32:56.109Z,51.95
2018-06-27T10:33:56.106Z,50.78
2018-06-27T10:34:56.222Z,49.17
2018-06-27T10:35:56.114Z,49.46
2018-06-27T10:36:56.116Z,49.15
2018-06-27T10:37:56.148Z,49.17
2018-06-27T10:38:56.144Z,48.68
2018-06-27T10:39:56.135Z,48.61
2018-06-27T10:40:56.135Z,48.12
2018-06-27T10:41:56.145Z,49.61
2018-06-27T10:42:56.149Z,51.14
2018-06-27T10:43:56.187Z,51.56
2018-06-27T10:44:56.154Z,50.60
2018-06-27T10:45:56.194Z,49.24
2018-06-27T10:46:56.167Z,48.73
2018-06-27T10:47:56.170Z,48.27
2018-06-27T10:48:56.173Z,48.36
2018-06-27T10:49:56.180Z,47.22
2018-06-27T10:50:56.188Z,46.26
2018-06-27T10:51:56.193Z,46.24
2018-06-27T10:52:56.194Z,46.92
2018-06-27T10:53:56.202Z,46.58
2018-06-27T10:54:56.205Z,46.09
2018-06-27T10:55:56.212Z,45.14
2018-06-27T10:56:56.228Z,45.70
2018-06-27T10:57:56.223Z,47.05
2018-06-27T10:58:56.228Z,46.92
2018-06-27T10:59:56.234Z,48.27
2018-06-27T11:00:56.237Z,48.27
2018-06-27T11:01:56.255Z,47.51
2018-06-27T11:02:56.258Z,46.80
2018-06-27T11:03:56.265Z,47.51
2018-06-27T11:04:56.263Z,46.85
2018-06-27T11:05:56.268Z,46.24
2018-06-27T11:06:56.273Z,46.80
2018-06-27T11:07:56.277Z,48.80
2018-06-27T11:08:56.282Z,48.54
2018-06-27T11:09:56.287Z,48.46
2018-06-27T11:10:56.292Z,47.49
2018-06-27T11:11:56.295Z,48.22
2018-06-27T11:12:56.299Z,48.66
2018-06-27T11:13:56.304Z,47.54
2018-06-27T11:14:56.308Z,48.00
2018-06-27T11:15:56.314Z,48.22
2018-06-27T11:16:56.316Z,47.30
2018-06-27T11:17:56.318Z,46.61
2018-06-27T11:18:56.326Z,45.95
2018-06-27T11:19:56.324Z,45.84
2018-06-27T11:20:56.324Z,47.54
2018-06-27T11:21:56.333Z,47.86
2018-06-27T11:22:56.331Z,47.66
2018-06-27T11:23:56.337Z,47.42
2018-06-27T11:24:56.341Z,45.59
2018-06-27T11:25:56.343Z,45.95
2018-06-27T11:26:56.407Z,47.88
2018-06-27T11:27:56.355Z,47.44
2018-06-27T11:28:56.346Z,47.61
2018-06-27T11:29:56.356Z,47.03
2018-06-27T11:30:56.353Z,46.37
2018-06-27T11:31:56.371Z,46.23
2018-06-27T11:32:56.355Z,45.76
2018-06-27T11:33:56.356Z,45.47
2018-06-27T11:34:56.369Z,46.03
2018-06-27T11:35:56.363Z,47.54
2018-06-27T11:36:56.371Z,48.58
2018-06-27T11:37:56.365Z,47.83
2018-06-27T11:38:56.367Z,48.03
2018-06-27T11:39:56.370Z,47.83
2018-06-27T11:40:56.369Z,47.15
2018-06-27T11:41:56.387Z,46.96
2018-06-27T11:42:56.374Z,46.64
2018-06-27T11:43:56.379Z,47.25
2018-06-27T11:44:56.376Z,46.03
2018-06-27T11:45:56.387Z,45.69
2018-06-27T11:46:56.380Z,46.59
2018-06-27T11:47:56.382Z,46.11
2018-06-27T11:48:56.380Z,46.30
2018-06-27T11:49:56.388Z,45.89
2018-06-27T11:50:56.382Z,46.67
2018-06-27T11:51:56.387Z,46.69
2018-06-27T11:52:56.380Z,47.54
2018-06-27T11:53:56.382Z,48.27
2018-06-27T11:54:56.380Z,49.24
2018-06-27T11:55:56.377Z,49.32
2018-06-27T11:56:56.373Z,49.51
2018-06-27T11:57:56.375Z,50.48
2018-06-27T11:58:56.371Z,50.68
2018-06-27T11:59:56.366Z,50.87
2018-06-27T12:00:56.363Z,50.26
2018-06-27T12:01:56.374Z,50.65
2018-06-27T12:02:56.366Z,50.74
2018-06-27T12:03:56.353Z,50.65
2018-06-27T12:04:56.350Z,50.46
2018-06-27T12:05:56.355Z,51.59
2018-06-27T12:06:56.340Z,51.31
2018-06-27T12:07:56.336Z,50.74
2018-06-27T12:08:56.346Z,50.16
2018-06-27T12:09:56.325Z,49.97
2018-06-27T12:10:56.327Z,51.50
2018-06-27T12:11:56.318Z,51.69
2018-06-27T12:12:56.307Z,52.83
2018-06-27T12:13:56.300Z,53.31
2018-06-27T12:14:56.296Z,53.89
2018-06-27T12:15:56.289Z,53.61
2018-06-27T12:16:56.312Z,53.02
2018-06-27T12:17:56.375Z,51.40
2018-06-27T12:18:56.267Z,50.72
2018-06-27T12:19:56.260Z,51.57
2018-06-27T12:20:56.263Z,51.40
2018-06-27T12:21:56.265Z,50.70
2018-06-27T12:22:56.241Z,50.82
2018-06-27T12:23:56.242Z,50.34
2018-06-27T12:24:56.230Z,49.66
2018-06-27T12:25:56.228Z,50.34
2018-06-27T12:26:56.214Z,50.72
2018-06-27T12:27:56.219Z,51.50
2018-06-27T12:28:56.210Z,51.59
2018-06-27T12:30:40.433Z,50.74
2018-06-27T12:31:40.409Z,51.62
2018-06-27T12:32:40.410Z,51.43
2018-06-27T12:33:40.394Z,51.23
2018-06-27T12:34:40.387Z,51.11
2018-06-27T12:35:40.381Z,52.18
2018-06-27T12:36:40.369Z,52.08
2018-06-27T12:37:40.364Z,53.70
2018-06-27T12:38:40.420Z,53.63
2018-06-27T12:39:40.347Z,52.08
2018-06-27T12:40:40.343Z,51.40
2018-06-27T12:41:40.337Z,51.14
2018-06-27T12:42:40.322Z,50.94
2018-06-27T12:43:40.312Z,50.48
2018-06-27T12:44:40.306Z,49.68
2018-06-27T12:45:40.299Z,50.46
2018-06-27T12:46:40.291Z,50.65
2018-06-27T12:47:40.280Z,50.74
2018-06-27T12:48:40.272Z,50.74
2018-06-27T12:49:40.271Z,50.53
2018-06-27T12:50:40.256Z,50.82
2018-06-27T12:51:40.249Z,50.99
2018-06-27T12:52:40.244Z,52.15